Terminal Aerodrome Forecast
Issued by NWS

Home | Current Version | Previous Version | Graphics & Text | Print | Product List | Glossary On
Versions: 1 2 3 4 5 6 7 8 9 10 11 12 13 14 15 16 17 18 19 20
272
FTUS43 KBIS 030300 AAB
TAFMOT
TAF AMD
KMOT 030300Z 0303/0324 18008KT P6SM OVC040
     FM030600 18006KT P6SM SCT040
     FM031600 18010KT P6SM BKN150
     FM032100 19010KT P6SM OVC020
     FM032200 19010KT P6SM OVC010=

USA.gov is the U.S. government's official web portal to all federal, state and local government web resources and services.